Time;durP1;ratioP1;P1;durP2;ratioP2;P2;SDS_P1;SDS_P2;PMS_P1;PMS_P2;Temp;Humidity;BMP_temperature;BMP_pressure;BME280_temperature;BME280_humidity;BME280_pressure;Samples;Min_cycle;Max_cycle;Signal;HPM_P1;HPM_P2
2023/09/09 00:01:38;;;;;;;20.33;13.60;;;;;;;;;;5034355;28;20105;-66
2023/09/09 00:04:04;;;;;;;22.73;13.25;;;;;;;;;;5034109;28;20045;-67
2023/09/09 00:06:29;;;;;;;23.73;15.10;;;;;;;;;;5034645;28;20024;-66
2023/09/09 00:08:54;;;;;;;19.38;13.93;;;;;;;;;;5034236;28;20474;-66
2023/09/09 00:11:20;;;;;;;24.98;16.23;;;;;;;;;;5034413;28;20026;-66
2023/09/09 00:13:45;;;;;;;23.20;15.68;;;;;;;;;;5034131;28;20030;-66
2023/09/09 00:16:11;;;;;;;27.25;16.80;;;;;;;;;;5034069;28;20104;-67
2023/09/09 00:18:36;;;;;;;26.58;17.00;;;;;;;;;;5034447;28;20028;-67
2023/09/09 00:21:02;;;;;;;27.35;17.30;;;;;;;;;;5033941;28;20025;-66
2023/09/09 00:23:27;;;;;;;29.83;18.70;;;;;;;;;;5033118;28;20104;-66
2023/09/09 00:25:52;;;;;;;35.95;20.73;;;;;;;;;;5034203;28;20085;-66
2023/09/09 00:28:17;;;;;;;28.45;20.15;;;;;;;;;;5033554;28;20446;-66
2023/09/09 00:30:43;;;;;;;28.83;18.75;;;;;;;;;;5044185;28;20024;-66
2023/09/09 00:33:08;;;;;;;29.77;18.55;;;;;;;;;;5041005;28;20548;-67
2023/09/09 00:35:34;;;;;;;26.38;17.63;;;;;;;;;;5033854;28;20021;-66
2023/09/09 00:38:00;;;;;;;28.30;17.27;;;;;;;;;;5033761;28;20028;-67
2023/09/09 00:40:25;;;;;;;21.80;14.60;;;;;;;;;;5034052;28;20021;-66
2023/09/09 00:42:50;;;;;;;20.48;14.45;;;;;;;;;;5033285;28;20021;-66
2023/09/09 00:45:16;;;;;;;25.05;16.15;;;;;;;;;;5033915;28;20079;-66
2023/09/09 00:47:41;;;;;;;22.85;15.98;;;;;;;;;;5032785;28;20021;-66
2023/09/09 00:50:10;;;;;;;23.92;16.98;;;;;;;;;;5033544;28;20021;-66
2023/09/09 00:52:38;;;;;;;29.17;17.30;;;;;;;;;;5033253;28;20017;-66
2023/09/09 00:55:04;;;;;;;26.13;15.63;;;;;;;;;;5033753;28;20466;-66
2023/09/09 00:57:29;;;;;;;23.08;14.68;;;;;;;;;;5033368;28;20508;-67
2023/09/09 00:59:55;;;;;;;27.50;16.05;;;;;;;;;;5033566;28;20053;-67
2023/09/09 01:02:20;;;;;;;25.20;16.55;;;;;;;;;;5032296;22;20111;-69
2023/09/09 01:04:45;;;;;;;28.25;17.83;;;;;;;;;;5042035;28;20033;-70
2023/09/09 01:07:11;;;;;;;27.35;17.30;;;;;;;;;;5032383;28;20014;-69
2023/09/09 01:09:36;;;;;;;26.13;16.70;;;;;;;;;;5013781;28;20025;-69
2023/09/09 01:12:03;;;;;;;23.40;15.57;;;;;;;;;;5013706;28;20033;-69
2023/09/09 01:14:28;;;;;;;26.17;16.60;;;;;;;;;;5050590;28;20021;-70
2023/09/09 01:16:54;;;;;;;23.88;15.88;;;;;;;;;;5036362;28;20018;-70
2023/09/09 01:19:21;;;;;;;24.67;16.20;;;;;;;;;;5033220;28;20092;-69
2023/09/09 01:21:46;;;;;;;25.40;16.45;;;;;;;;;;5030168;28;20387;-69
2023/09/09 01:24:15;;;;;;;21.23;14.52;;;;;;;;;;5049941;28;20100;-69
2023/09/09 01:26:41;;;;;;;21.20;14.65;;;;;;;;;;5053180;28;20021;-70
2023/09/09 01:29:06;;;;;;;26.33;14.95;;;;;;;;;;5051542;28;20501;-70
2023/09/09 01:31:32;;;;;;;20.00;14.60;;;;;;;;;;5052875;28;20025;-70
2023/09/09 01:33:57;;;;;;;22.83;16.23;;;;;;;;;;5052838;28;20021;-69
2023/09/09 01:36:23;;;;;;;25.20;16.38;;;;;;;;;;5054847;28;20025;-70
2023/09/09 01:38:48;;;;;;;27.63;16.23;;;;;;;;;;5035053;28;20037;-69
2023/09/09 01:41:13;;;;;;;28.95;18.75;;;;;;;;;;5033673;28;20539;-69
2023/09/09 01:43:38;;;;;;;30.63;17.25;;;;;;;;;;5036129;28;20025;-70
2023/09/09 01:46:04;;;;;;;26.67;18.15;;;;;;;;;;5020536;28;20033;-69
2023/09/09 01:48:29;;;;;;;24.80;18.13;;;;;;;;;;5057125;28;20036;-70
2023/09/09 01:50:54;;;;;;;31.63;19.17;;;;;;;;;;5057069;28;20017;-69
2023/09/09 01:53:19;;;;;;;31.20;20.67;;;;;;;;;;5047413;28;20013;-69
2023/09/09 01:55:45;;;;;;;32.08;19.17;;;;;;;;;;5036816;28;20029;-69
2023/09/09 01:58:10;;;;;;;33.50;21.38;;;;;;;;;;5041652;28;20035;-69
2023/09/09 02:00:35;;;;;;;35.30;21.25;;;;;;;;;;5056448;28;20021;-69
2023/09/09 02:03:00;;;;;;;31.75;19.73;;;;;;;;;;5048507;28;20049;-69
2023/09/09 02:05:26;;;;;;;33.13;21.90;;;;;;;;;;5036382;28;20080;-69
2023/09/09 02:07:51;;;;;;;33.95;21.27;;;;;;;;;;5036797;28;20029;-69
2023/09/09 02:10:17;;;;;;;33.67;20.65;;;;;;;;;;5036772;28;20037;-70
2023/09/09 02:12:42;;;;;;;34.53;21.98;;;;;;;;;;5037223;28;20033;-69
2023/09/09 02:15:08;;;;;;;32.47;21.80;;;;;;;;;;5036694;28;20033;-69
2023/09/09 02:17:36;;;;;;;32.60;22.27;;;;;;;;;;5036584;28;20025;-69
2023/09/09 02:20:02;;;;;;;32.58;21.63;;;;;;;;;;5036154;28;20036;-69
2023/09/09 02:22:27;;;;;;;34.85;22.10;;;;;;;;;;5036274;28;20022;-69
2023/09/09 02:24:53;;;;;;;34.35;22.35;;;;;;;;;;5036238;28;20032;-70
2023/09/09 02:27:19;;;;;;;39.45;22.92;;;;;;;;;;5036490;28;20036;-70
2023/09/09 02:29:44;;;;;;;37.25;22.95;;;;;;;;;;5037019;28;20381;-70
2023/09/09 02:32:09;;;;;;;36.50;22.83;;;;;;;;;;5036337;28;20021;-69
2023/09/09 02:34:34;;;;;;;34.42;22.42;;;;;;;;;;5034541;28;20021;-69
2023/09/09 02:37:19;;;;;;;30.20;21.17;;;;;;;;;;5035962;28;20017;-69
2023/09/09 02:39:44;;;;;;;31.65;19.60;;;;;;;;;;5036131;28;20474;-70
2023/09/09 02:42:10;;;;;;;33.17;21.90;;;;;;;;;;5035923;28;20103;-69
2023/09/09 02:44:36;;;;;;;32.97;22.55;;;;;;;;;;5046134;28;20029;-70
2023/09/09 02:47:01;;;;;;;30.33;18.83;;;;;;;;;;5054723;28;20572;-70
2023/09/09 02:49:26;;;;;;;28.73;19.35;;;;;;;;;;5055731;28;20083;-69
2023/09/09 02:51:52;;;;;;;28.45;18.80;;;;;;;;;;5055972;28;20028;-69
2023/09/09 02:54:17;;;;;;;25.70;17.88;;;;;;;;;;5042648;28;20395;-69
2023/09/09 02:56:42;;;;;;;25.27;16.08;;;;;;;;;;5034616;28;20029;-69
2023/09/09 02:59:07;;;;;;;19.83;14.77;;;;;;;;;;5036858;28;20029;-70
2023/09/09 03:01:33;;;;;;;29.67;17.63;;;;;;;;;;5035746;28;20098;-69
2023/09/09 03:03:58;;;;;;;28.95;18.65;;;;;;;;;;5044916;28;20052;-70
2023/09/09 03:06:24;;;;;;;29.92;19.45;;;;;;;;;;5052920;28;20021;-69
2023/09/09 03:08:49;;;;;;;33.08;21.55;;;;;;;;;;5035469;28;20480;-69
2023/09/09 03:11:14;;;;;;;37.58;22.75;;;;;;;;;;5033435;28;20494;-69
2023/09/09 03:13:39;;;;;;;31.40;21.20;;;;;;;;;;5029053;28;20499;-69
2023/09/09 03:16:05;;;;;;;36.28;23.42;;;;;;;;;;5043871;28;20366;-69
2023/09/09 03:18:30;;;;;;;42.53;24.00;;;;;;;;;;5035264;28;20523;-69
2023/09/09 03:20:55;;;;;;;39.38;24.63;;;;;;;;;;5035162;28;20433;-69
2023/09/09 03:23:20;;;;;;;38.08;24.70;;;;;;;;;;5035618;28;20030;-70
2023/09/09 03:25:46;;;;;;;36.75;23.10;;;;;;;;;;5035446;28;20491;-70
2023/09/09 03:28:11;;;;;;;33.10;21.85;;;;;;;;;;5036206;28;20483;-72
2023/09/09 03:30:55;;;;;;;31.23;21.55;;;;;;;;;;5034994;28;20481;-70
2023/09/09 03:33:20;;;;;;;37.22;23.48;;;;;;;;;;5023790;28;20024;-70
2023/09/09 03:35:45;;;;;;;38.00;24.17;;;;;;;;;;5054876;28;20021;-70
2023/09/09 03:38:11;;;;;;;36.63;23.83;;;;;;;;;;5055110;28;20017;-70
2023/09/09 03:40:36;;;;;;;38.85;24.23;;;;;;;;;;5054598;28;20444;-70
2023/09/09 03:43:01;;;;;;;32.23;21.07;;;;;;;;;;5030830;28;20064;-70
2023/09/09 03:45:26;;;;;;;37.75;21.30;;;;;;;;;;5052259;28;20025;-70
2023/09/09 03:47:52;;;;;;;42.03;21.92;;;;;;;;;;5054678;28;20021;-70
2023/09/09 03:50:17;;;;;;;39.57;23.43;;;;;;;;;;5054654;28;20021;-70
2023/09/09 03:52:42;;;;;;;40.87;25.43;;;;;;;;;;5054781;28;20525;-70
2023/09/09 03:55:07;;;;;;;38.47;23.23;;;;;;;;;;5038232;28;20501;-70
2023/09/09 03:57:33;;;;;;;39.90;24.20;;;;;;;;;;5033755;28;20350;-70
2023/09/09 03:59:58;;;;;;;40.63;25.30;;;;;;;;;;5035604;28;20476;-70
2023/09/09 04:02:23;;;;;;;42.60;26.95;;;;;;;;;;5034179;28;20489;-70
2023/09/09 04:04:48;;;;;;;54.53;30.27;;;;;;;;;;5047352;28;20029;-70
2023/09/09 04:07:14;;;;;;;52.07;25.33;;;;;;;;;;5054340;28;20012;-70
2023/09/09 04:09:40;;;;;;;41.00;22.00;;;;;;;;;;5039226;28;20044;-70
2023/09/09 04:12:06;;;;;;;36.50;22.30;;;;;;;;;;5034590;28;20014;-70
2023/09/09 04:14:31;;;;;;;43.90;24.87;;;;;;;;;;5035445;28;20028;-70
2023/09/09 04:16:57;;;;;;;40.97;24.13;;;;;;;;;;5034388;28;20461;-70
2023/09/09 04:19:22;;;;;;;43.57;25.53;;;;;;;;;;5034362;28;20365;-70
2023/09/09 04:21:49;;;;;;;43.15;22.55;;;;;;;;;;5033991;28;20029;-70
2023/09/09 04:24:14;;;;;;;36.57;23.07;;;;;;;;;;5042104;28;20408;-70
2023/09/09 04:26:40;;;;;;;36.90;23.47;;;;;;;;;;5054164;28;20082;-70
2023/09/09 04:29:05;;;;;;;37.33;22.70;;;;;;;;;;5052406;28;20481;-70
2023/09/09 04:31:30;;;;;;;39.27;23.70;;;;;;;;;;5054028;28;20473;-70
2023/09/09 04:33:55;;;;;;;41.20;25.80;;;;;;;;;;5048124;28;20489;-70
2023/09/09 04:36:20;;;;;;;40.20;23.97;;;;;;;;;;5033684;28;20090;-70
2023/09/09 04:38:46;;;;;;;40.17;24.13;;;;;;;;;;5032212;28;20013;-70
2023/09/09 04:41:11;;;;;;;44.77;25.90;;;;;;;;;;5033638;28;20025;-70
2023/09/09 04:43:36;;;;;;;43.50;27.17;;;;;;;;;;5034492;28;20033;-70
2023/09/09 04:46:01;;;;;;;49.20;28.40;;;;;;;;;;5033744;28;20025;-70
2023/09/09 04:48:26;;;;;;;43.90;26.60;;;;;;;;;;5033620;28;20030;-70
2023/09/09 04:50:52;;;;;;;50.13;29.38;;;;;;;;;;5033494;28;20030;-70
2023/09/09 04:53:17;;;;;;;51.73;29.37;;;;;;;;;;5033494;28;20029;-70
2023/09/09 04:55:42;;;;;;;66.23;35.57;;;;;;;;;;5042589;28;20110;-70
2023/09/09 04:58:10;;;;;;;71.90;39.73;;;;;;;;;;5033420;28;20065;-70
2023/09/09 05:00:35;;;;;;;70.00;38.33;;;;;;;;;;5031746;28;20029;-70
2023/09/09 05:03:00;;;;;;;77.20;42.70;;;;;;;;;;5045592;28;20037;-70
2023/09/09 05:05:25;;;;;;;76.07;42.40;;;;;;;;;;5027380;28;20091;-70
2023/09/09 05:07:50;;;;;;;60.97;35.22;;;;;;;;;;5013584;28;20042;-70
2023/09/09 05:10:16;;;;;;;53.08;32.10;;;;;;;;;;5013488;28;20025;-70
2023/09/09 05:12:41;;;;;;;52.42;31.52;;;;;;;;;;5024312;28;20380;-70
2023/09/09 05:15:10;;;;;;;46.60;29.40;;;;;;;;;;5034382;28;20476;-70
2023/09/09 05:17:35;;;;;;;38.58;25.73;;;;;;;;;;5033279;28;20527;-70
2023/09/09 05:20:00;;;;;;;40.10;26.65;;;;;;;;;;5031816;28;20033;-70
2023/09/09 05:22:25;;;;;;;37.22;24.63;;;;;;;;;;5021793;28;20025;-70
2023/09/09 05:24:50;;;;;;;34.13;22.42;;;;;;;;;;5032896;28;20014;-70
2023/09/09 05:27:16;;;;;;;31.23;21.88;;;;;;;;;;5019663;28;20025;-70
2023/09/09 05:29:43;;;;;;;28.08;19.20;;;;;;;;;;5023694;28;20025;-70
2023/09/09 05:32:08;;;;;;;28.27;19.27;;;;;;;;;;5053271;28;20425;-70
2023/09/09 05:34:33;;;;;;;28.83;18.35;;;;;;;;;;5048466;28;20116;-70
2023/09/09 05:36:58;;;;;;;27.40;17.80;;;;;;;;;;5031872;28;20029;-70
2023/09/09 05:39:23;;;;;;;26.33;17.85;;;;;;;;;;5033381;28;20454;-70
2023/09/09 05:41:49;;;;;;;24.38;17.33;;;;;;;;;;5052626;28;20425;-70
2023/09/09 05:44:14;;;;;;;26.50;16.48;;;;;;;;;;5036328;28;20017;-69
2023/09/09 05:46:39;;;;;;;22.42;16.02;;;;;;;;;;5018596;28;20037;-70
2023/09/09 05:49:04;;;;;;;21.40;15.43;;;;;;;;;;5013146;28;20024;-69
2023/09/09 05:51:30;;;;;;;21.38;13.10;;;;;;;;;;5048082;28;20055;-69
2023/09/09 05:53:55;;;;;;;17.33;10.77;;;;;;;;;;5032705;28;20029;-69
2023/09/09 05:56:20;;;;;;;15.75;10.57;;;;;;;;;;5032979;28;20027;-69
2023/09/09 05:58:45;;;;;;;15.20;9.85;;;;;;;;;;5030075;28;20539;-69
2023/09/09 06:01:11;;;;;;;13.15;8.68;;;;;;;;;;5025770;28;20047;-68
2023/09/09 06:03:36;;;;;;;16.52;9.98;;;;;;;;;;5026000;28;20109;-69
2023/09/09 06:06:02;;;;;;;12.75;8.63;;;;;;;;;;5032732;28;20017;-69
2023/09/09 06:08:27;;;;;;;13.77;8.98;;;;;;;;;;5032637;28;20071;-69
2023/09/09 06:10:52;;;;;;;16.98;9.48;;;;;;;;;;5032988;28;20040;-69
2023/09/09 06:13:18;;;;;;;16.17;10.25;;;;;;;;;;5032971;28;20037;-69
2023/09/09 06:15:43;;;;;;;19.50;9.48;;;;;;;;;;5047238;28;20087;-69
2023/09/09 06:18:08;;;;;;;17.05;9.63;;;;;;;;;;5048457;28;20040;-69
2023/09/09 06:20:33;;;;;;;15.20;8.93;;;;;;;;;;5052252;28;20021;-68
2023/09/09 06:22:59;;;;;;;16.27;8.95;;;;;;;;;;5055271;28;20020;-69
2023/09/09 06:25:24;;;;;;;14.30;9.38;;;;;;;;;;5056288;28;20440;-69
2023/09/09 06:27:49;;;;;;;22.00;9.40;;;;;;;;;;5043173;28;20025;-68
2023/09/09 06:30:15;;;;;;;12.63;9.00;;;;;;;;;;5038316;28;20025;-69
2023/09/09 06:32:40;;;;;;;13.52;9.07;;;;;;;;;;5040114;28;20504;-69
2023/09/09 06:35:06;;;;;;;13.00;8.75;;;;;;;;;;5036469;28;20465;-69
2023/09/09 06:37:31;;;;;;;13.38;8.60;;;;;;;;;;5036315;28;20476;-69
2023/09/09 06:39:56;;;;;;;15.48;9.50;;;;;;;;;;5035837;28;20104;-69
2023/09/09 06:42:21;;;;;;;12.55;9.18;;;;;;;;;;5036201;28;20100;-69
2023/09/09 06:44:47;;;;;;;13.90;9.95;;;;;;;;;;5036099;28;20416;-70
2023/09/09 06:47:12;;;;;;;13.13;9.75;;;;;;;;;;5050707;28;20055;-69
2023/09/09 06:49:37;;;;;;;14.95;8.98;;;;;;;;;;5055696;28;20025;-70
2023/09/09 06:52:03;;;;;;;12.15;9.20;;;;;;;;;;5046560;28;20556;-70
2023/09/09 06:54:28;;;;;;;14.52;9.18;;;;;;;;;;5035890;28;20100;-70
2023/09/09 06:56:53;;;;;;;13.30;9.05;;;;;;;;;;5048391;28;20031;-70
2023/09/09 06:59:18;;;;;;;13.80;8.90;;;;;;;;;;5045978;28;20028;-70
2023/09/09 07:01:44;;;;;;;11.98;9.00;;;;;;;;;;5044068;28;20021;-69
2023/09/09 07:04:09;;;;;;;12.70;9.00;;;;;;;;;;5022488;28;20107;-69
2023/09/09 07:06:34;;;;;;;16.60;9.57;;;;;;;;;;5026996;28;20057;-69
2023/09/09 07:08:59;;;;;;;11.20;8.38;;;;;;;;;;5035179;28;20022;-69
2023/09/09 07:11:25;;;;;;;14.20;8.40;;;;;;;;;;5035645;28;20044;-69
2023/09/09 07:13:50;;;;;;;11.48;8.50;;;;;;;;;;5019672;28;20025;-70
2023/09/09 07:16:17;;;;;;;11.63;7.85;;;;;;;;;;5030548;28;20052;-70
2023/09/09 07:18:42;;;;;;;11.30;7.93;;;;;;;;;;5052533;28;20021;-70
2023/09/09 07:21:07;;;;;;;10.68;7.85;;;;;;;;;;5035297;28;20500;-70
2023/09/09 07:23:32;;;;;;;10.40;8.05;;;;;;;;;;5040160;28;20437;-71
2023/09/09 07:25:58;;;;;;;12.27;8.85;;;;;;;;;;5035590;28;20029;-70
2023/09/09 07:28:23;;;;;;;15.85;7.68;;;;;;;;;;5034045;28;20021;-71
2023/09/09 07:30:48;;;;;;;10.90;7.60;;;;;;;;;;5050140;28;20046;-70
2023/09/09 07:33:14;;;;;;;10.38;8.00;;;;;;;;;;5032865;28;20025;-70
2023/09/09 07:35:39;;;;;;;11.98;8.20;;;;;;;;;;5020308;28;20397;-70
2023/09/09 07:38:05;;;;;;;9.93;7.82;;;;;;;;;;5035032;28;20405;-70
2023/09/09 07:40:30;;;;;;;12.00;8.18;;;;;;;;;;5034503;28;20032;-70
2023/09/09 07:42:55;;;;;;;12.73;8.02;;;;;;;;;;5031915;28;20021;-70
2023/09/09 07:45:21;;;;;;;13.73;8.27;;;;;;;;;;5030643;28;20458;-70
2023/09/09 07:47:47;;;;;;;11.52;8.30;;;;;;;;;;5053539;28;20075;-70
2023/09/09 07:50:12;;;;;;;10.85;7.63;;;;;;;;;;5038765;28;20434;-70
2023/09/09 07:52:37;;;;;;;15.57;8.82;;;;;;;;;;5033962;28;20457;-70
2023/09/09 07:55:02;;;;;;;17.23;8.00;;;;;;;;;;5034443;28;20017;-70
2023/09/09 07:57:28;;;;;;;10.85;7.88;;;;;;;;;;5032259;28;20031;-70
2023/09/09 07:59:53;;;;;;;12.90;8.07;;;;;;;;;;5034398;28;20120;-71
2023/09/09 08:02:19;;;;;;;13.27;7.97;;;;;;;;;;5046641;28;20044;-71
2023/09/09 08:04:44;;;;;;;9.95;7.72;;;;;;;;;;5054623;28;20033;-71
2023/09/09 08:07:09;;;;;;;10.95;7.85;;;;;;;;;;5039823;28;20052;-71
2023/09/09 08:09:34;;;;;;;12.40;7.67;;;;;;;;;;5015788;28;20060;-71
2023/09/09 08:12:00;;;;;;;10.75;7.80;;;;;;;;;;5034393;28;20257;-71
2023/09/09 08:14:25;;;;;;;11.88;7.75;;;;;;;;;;5034509;28;20109;-71
2023/09/09 08:16:50;;;;;;;10.80;7.90;;;;;;;;;;5034919;28;20022;-71
2023/09/09 08:19:16;;;;;;;10.87;7.67;;;;;;;;;;5034074;28;20036;-71
2023/09/09 08:21:41;;;;;;;13.27;8.00;;;;;;;;;;5033878;28;20375;-71
2023/09/09 08:24:06;;;;;;;12.40;6.97;;;;;;;;;;5032531;28;20017;-71
2023/09/09 08:26:32;;;;;;;10.93;8.10;;;;;;;;;;5034468;28;20026;-71
2023/09/09 08:28:57;;;;;;;11.88;8.07;;;;;;;;;;5033944;28;20527;-71
2023/09/09 08:31:22;;;;;;;11.10;7.70;;;;;;;;;;5035010;28;20052;-71
2023/09/09 08:33:47;;;;;;;13.73;8.00;;;;;;;;;;5033831;28;20479;-71
2023/09/09 08:36:13;;;;;;;13.73;7.47;;;;;;;;;;5038805;28;20350;-71
2023/09/09 08:38:38;;;;;;;16.75;8.07;;;;;;;;;;5052745;28;20044;-71
2023/09/09 08:41:06;;;;;;;11.77;7.97;;;;;;;;;;5031859;28;20105;-71
2023/09/09 08:43:45;;;;;;;15.32;8.00;;;;;;;;;;5014179;28;20245;-71
2023/09/09 08:46:15;;;;;;;14.10;7.97;;;;;;;;;;5026415;28;20372;-71
2023/09/09 08:48:41;;;;;;;14.77;7.95;;;;;;;;;;5053739;28;20029;-71
2023/09/09 08:51:08;;;;;;;12.18;7.95;;;;;;;;;;5026588;28;20505;-71
2023/09/09 08:53:33;;;;;;;14.32;7.50;;;;;;;;;;5033929;28;20021;-73
2023/09/09 08:55:59;;;;;;;17.05;7.63;;;;;;;;;;5036241;28;20032;-73
2023/09/09 08:58:25;;;;;;;39.30;8.55;;;;;;;;;;5044339;28;20445;-73
2023/09/09 09:00:50;;;;;;;10.32;7.28;;;;;;;;;;5032677;28;20091;-73
2023/09/09 09:03:17;;;;;;;11.15;8.10;;;;;;;;;;5032350;28;20412;-74
2023/09/09 09:05:42;;;;;;;10.13;7.75;;;;;;;;;;5052529;28;20023;-73
2023/09/09 09:08:09;;;;;;;11.15;7.63;;;;;;;;;;5033075;28;20033;-73
2023/09/09 09:10:35;;;;;;;12.38;7.65;;;;;;;;;;5033309;28;20022;-73
2023/09/09 09:13:00;;;;;;;11.82;7.68;;;;;;;;;;5033387;28;20081;-73
2023/09/09 09:15:26;;;;;;;12.00;7.73;;;;;;;;;;5033100;28;20022;-73
2023/09/09 09:17:52;;;;;;;10.50;7.80;;;;;;;;;;5032545;28;20829;-74
2023/09/09 09:20:25;;;;;;;12.00;7.35;;;;;;;;;;5032091;28;20029;-73
2023/09/09 09:22:50;;;;;;;12.43;7.68;;;;;;;;;;5037292;28;20013;-73
2023/09/09 09:25:19;;;;;;;13.07;7.65;;;;;;;;;;5052518;28;20017;-73
2023/09/09 09:27:44;;;;;;;13.77;7.28;;;;;;;;;;5035593;28;20033;-73
2023/09/09 09:30:11;;;;;;;11.37;7.60;;;;;;;;;;5031080;28;20355;-73
2023/09/09 09:32:42;;;;;;;11.35;7.40;;;;;;;;;;5037338;28;20268;-71
2023/09/09 09:35:23;;;;;;;13.50;7.50;;;;;;;;;;5036548;28;20063;-73
2023/09/09 09:37:52;;;;;;;13.98;7.40;;;;;;;;;;5037982;28;20028;-73
2023/09/09 09:40:18;;;;;;;14.35;7.30;;;;;;;;;;5033168;28;20381;-73
2023/09/09 09:42:43;;;;;;;13.70;7.40;;;;;;;;;;5032921;28;20013;-72
2023/09/09 09:45:09;;;;;;;11.80;6.78;;;;;;;;;;5033029;28;20067;-72
2023/09/09 09:47:43;;;;;;;10.75;7.30;;;;;;;;;;5028324;28;20433;-73
2023/09/09 09:50:15;;;;;;;12.93;6.78;;;;;;;;;;5013077;28;20026;-73
2023/09/09 09:52:43;;;;;;;11.32;7.70;;;;;;;;;;5026713;28;20044;-73
2023/09/09 09:55:15;;;;;;;11.48;7.88;;;;;;;;;;5039300;28;20029;-73
2023/09/09 09:57:40;;;;;;;12.40;7.25;;;;;;;;;;5041396;28;20059;-73
2023/09/09 10:00:06;;;;;;;13.32;7.22;;;;;;;;;;5036884;28;20041;-74
2023/09/09 10:02:31;;;;;;;14.80;6.80;;;;;;;;;;5049568;28;20041;-73
2023/09/09 10:04:57;;;;;;;12.10;6.60;;;;;;;;;;5056484;28;20075;-74
2023/09/09 10:07:23;;;;;;;13.18;6.47;;;;;;;;;;5051760;28;20017;-74
2023/09/09 10:10:07;;;;;;;13.25;6.35;;;;;;;;;;5036318;28;20018;-74
2023/09/09 10:12:44;;;;;;;11.65;5.82;;;;;;;;;;5036338;28;20017;-74
2023/09/09 10:15:10;;;;;;;12.07;5.80;;;;;;;;;;5036497;28;20469;-74
2023/09/09 10:17:36;;;;;;;8.50;5.13;;;;;;;;;;5040321;28;20018;-73
2023/09/09 10:20:02;;;;;;;11.52;5.50;;;;;;;;;;5045375;28;20060;-74
2023/09/09 10:22:28;;;;;;;9.73;5.55;;;;;;;;;;5036112;28;20421;-70
2023/09/09 10:24:53;;;;;;;9.05;5.07;;;;;;;;;;5016547;28;20018;-74
2023/09/09 10:27:19;;;;;;;9.65;5.53;;;;;;;;;;5037166;28;20155;-74
2023/09/09 10:29:45;;;;;;;10.00;5.20;;;;;;;;;;5038168;28;20032;-73
2023/09/09 10:32:12;;;;;;;11.52;5.40;;;;;;;;;;5054445;28;20021;-73
2023/09/09 10:34:37;;;;;;;10.68;6.00;;;;;;;;;;5037327;28;20071;-73
2023/09/09 10:37:03;;;;;;;12.50;5.38;;;;;;;;;;5036478;28;20419;-73
2023/09/09 10:39:29;;;;;;;10.02;4.70;;;;;;;;;;5036283;28;20084;-74
2023/09/09 10:41:55;;;;;;;7.18;4.20;;;;;;;;;;5035865;28;20029;-73
2023/09/09 10:44:21;;;;;;;7.97;4.10;;;;;;;;;;5035801;28;20025;-73
2023/09/09 10:46:46;;;;;;;11.05;3.92;;;;;;;;;;5035630;28;20096;-70
2023/09/09 10:49:14;;;;;;;12.63;4.85;;;;;;;;;;5021523;28;20041;-73
2023/09/09 10:51:48;;;;;;;9.45;4.35;;;;;;;;;;5036161;28;20042;-73
2023/09/09 10:54:14;;;;;;;7.07;4.18;;;;;;;;;;5036742;28;20009;-73
2023/09/09 10:56:47;;;;;;;7.68;4.65;;;;;;;;;;5035208;28;20100;-73
2023/09/09 10:59:16;;;;;;;9.35;4.50;;;;;;;;;;5035863;28;20121;-73
2023/09/09 11:01:42;;;;;;;8.93;4.85;;;;;;;;;;5035252;28;20022;-73
2023/09/09 11:04:17;;;;;;;8.18;5.05;;;;;;;;;;5036378;28;20045;-73
2023/09/09 11:06:57;;;;;;;12.73;4.70;;;;;;;;;;5035257;28;20083;-73
2023/09/09 11:09:26;;;;;;;9.35;4.90;;;;;;;;;;5027959;28;20018;-73
2023/09/09 11:11:54;;;;;;;11.25;4.85;;;;;;;;;;5024190;28;20021;-73
2023/09/09 11:14:20;;;;;;;13.13;6.10;;;;;;;;;;5045912;28;20031;-72
2023/09/09 11:16:48;;;;;;;9.88;5.38;;;;;;;;;;5028283;28;20025;-73
2023/09/09 11:19:14;;;;;;;9.43;5.70;;;;;;;;;;5036192;28;20037;-73
2023/09/09 11:21:40;;;;;;;8.55;5.35;;;;;;;;;;5053098;28;20079;-72
2023/09/09 11:24:06;;;;;;;9.23;4.47;;;;;;;;;;5055034;28;20024;-72
2023/09/09 11:26:31;;;;;;;9.90;5.45;;;;;;;;;;5034973;28;20013;-73
2023/09/09 11:28:57;;;;;;;8.65;4.75;;;;;;;;;;5034756;28;20491;-72
2023/09/09 11:31:23;;;;;;;7.13;5.15;;;;;;;;;;5035206;28;20013;-72
2023/09/09 11:33:48;;;;;;;9.85;5.10;;;;;;;;;;5051020;28;20020;-73
2023/09/09 11:36:17;;;;;;;10.10;4.90;;;;;;;;;;5055172;28;20443;-73
2023/09/09 11:38:43;;;;;;;11.88;5.20;;;;;;;;;;5054823;28;20017;-72
2023/09/09 11:41:09;;;;;;;12.77;5.40;;;;;;;;;;5033907;28;20033;-73
2023/09/09 11:43:34;;;;;;;11.10;5.10;;;;;;;;;;5034813;28;20013;-73
2023/09/09 11:45:59;;;;;;;10.02;4.93;;;;;;;;;;5031227;28;20097;-73
2023/09/09 11:48:25;;;;;;;8.20;4.93;;;;;;;;;;5035540;28;20017;-73
2023/09/09 11:50:51;;;;;;;9.20;4.75;;;;;;;;;;5034667;28;20017;-74
2023/09/09 11:53:18;;;;;;;8.23;4.93;;;;;;;;;;5049906;28;20024;-74
2023/09/09 11:55:43;;;;;;;9.73;5.68;;;;;;;;;;5054444;28;20013;-73
2023/09/09 11:58:08;;;;;;;9.95;5.00;;;;;;;;;;5051372;28;20108;-73
2023/09/09 12:00:34;;;;;;;11.38;5.13;;;;;;;;;;5034086;28;20106;-73
2023/09/09 12:02:59;;;;;;;14.05;5.70;;;;;;;;;;5028436;28;20073;-74
2023/09/09 12:05:28;;;;;;;13.18;4.93;;;;;;;;;;5034421;28;20500;-73
2023/09/09 12:07:54;;;;;;;9.27;4.90;;;;;;;;;;5036709;28;20030;-73
2023/09/09 12:10:19;;;;;;;8.50;4.40;;;;;;;;;;5036703;28;20028;-73
2023/09/09 12:12:46;;;;;;;8.65;4.45;;;;;;;;;;5034539;28;20037;-73
2023/09/09 12:15:13;;;;;;;10.63;4.20;;;;;;;;;;5034518;28;20432;-73
2023/09/09 12:17:38;;;;;;;10.13;4.70;;;;;;;;;;5034405;28;20017;-72
2023/09/09 12:20:08;;;;;;;10.05;3.95;;;;;;;;;;5043114;28;20121;-73
2023/09/09 12:22:33;;;;;;;10.57;3.75;;;;;;;;;;5034166;28;20021;-74
2023/09/09 12:24:59;;;;;;;7.07;3.97;;;;;;;;;;5034398;28;20052;-74
2023/09/09 12:27:43;;;;;;;9.15;4.22;;;;;;;;;;5034356;28;20021;-73
2023/09/09 12:30:27;;;;;;;6.93;3.80;;;;;;;;;;5051442;28;20072;-73
2023/09/09 12:32:52;;;;;;;8.45;3.83;;;;;;;;;;5054076;28;20131;-73
2023/09/09 12:35:18;;;;;;;9.00;3.60;;;;;;;;;;5052105;28;20033;-73
2023/09/09 12:37:43;;;;;;;10.57;3.30;;;;;;;;;;5016098;28;20260;-73
2023/09/09 12:40:09;;;;;;;8.57;3.55;;;;;;;;;;5017563;28;20025;-73
2023/09/09 12:42:34;;;;;;;8.90;3.70;;;;;;;;;;5033988;28;20021;-73
2023/09/09 12:44:59;;;;;;;7.70;3.45;;;;;;;;;;5033391;28;20477;-73
2023/09/09 12:47:26;;;;;;;11.30;4.10;;;;;;;;;;5033482;28;20093;-74
2023/09/09 12:49:51;;;;;;;10.82;3.80;;;;;;;;;;5043944;28;20256;-73
2023/09/09 12:52:16;;;;;;;9.97;3.60;;;;;;;;;;5051987;28;20514;-73
2023/09/09 12:54:42;;;;;;;11.88;3.90;;;;;;;;;;5033195;28;20252;-73
2023/09/09 12:57:07;;;;;;;7.03;3.40;;;;;;;;;;5031094;28;20033;-73
2023/09/09 12:59:32;;;;;;;7.23;3.80;;;;;;;;;;5050224;28;20342;-73
2023/09/09 13:01:57;;;;;;;8.57;4.87;;;;;;;;;;5033259;28;20292;-74
2023/09/09 13:04:24;;;;;;;8.60;3.85;;;;;;;;;;5033777;28;20346;-74
2023/09/09 13:06:49;;;;;;;8.95;3.90;;;;;;;;;;5033582;28;20469;-74
2023/09/09 13:09:14;;;;;;;12.93;4.32;;;;;;;;;;5030296;28;20014;-73
2023/09/09 13:11:40;;;;;;;10.35;4.10;;;;;;;;;;5040960;28;20505;-73
2023/09/09 13:14:05;;;;;;;10.23;5.10;;;;;;;;;;5036209;28;21716;-73
2023/09/09 13:16:30;;;;;;;8.85;3.70;;;;;;;;;;5032594;28;20033;-72
2023/09/09 13:18:55;;;;;;;10.17;4.17;;;;;;;;;;5038560;28;20032;-73
2023/09/09 13:21:21;;;;;;;9.80;4.53;;;;;;;;;;5033494;28;20338;-73
2023/09/09 13:23:46;;;;;;;8.23;3.70;;;;;;;;;;5033007;28;20025;-73
2023/09/09 13:26:11;;;;;;;7.00;3.70;;;;;;;;;;5051586;28;20331;-72
2023/09/09 13:28:36;;;;;;;9.55;3.92;;;;;;;;;;5048149;28;20338;-73
2023/09/09 13:31:02;;;;;;;9.93;4.20;;;;;;;;;;5033479;28;20022;-73
2023/09/09 13:33:28;;;;;;;9.77;3.65;;;;;;;;;;5029816;28;20401;-72
2023/09/09 13:35:53;;;;;;;9.35;3.92;;;;;;;;;;5010518;28;20025;-72
2023/09/09 13:38:18;;;;;;;10.52;3.85;;;;;;;;;;5028136;28;20021;-73
2023/09/09 13:40:44;;;;;;;9.23;3.58;;;;;;;;;;5033004;28;20021;-73
2023/09/09 13:43:09;;;;;;;9.40;3.83;;;;;;;;;;5029275;28;20462;-73
2023/09/09 13:45:34;;;;;;;11.55;4.13;;;;;;;;;;5033100;28;20414;-72
2023/09/09 13:47:59;;;;;;;12.13;3.80;;;;;;;;;;5032540;28;20028;-72
2023/09/09 13:50:25;;;;;;;11.40;4.23;;;;;;;;;;5032266;28;20021;-72
2023/09/09 13:52:50;;;;;;;10.15;3.70;;;;;;;;;;5033049;28;20259;-73
2023/09/09 13:55:15;;;;;;;9.98;4.28;;;;;;;;;;5033069;28;20067;-73
2023/09/09 13:57:41;;;;;;;10.35;4.10;;;;;;;;;;5032880;28;20465;-73
2023/09/09 14:00:06;;;;;;;12.95;4.00;;;;;;;;;;5037765;28;20056;-71
2023/09/09 14:02:32;;;;;;;8.63;3.72;;;;;;;;;;5052396;28;20046;-72
2023/09/09 14:04:57;;;;;;;10.65;3.97;;;;;;;;;;5039693;28;20033;-72
2023/09/09 14:07:22;;;;;;;11.82;3.70;;;;;;;;;;5031483;28;20018;-73
2023/09/09 14:09:47;;;;;;;12.00;4.47;;;;;;;;;;5032230;28;20021;-73
2023/09/09 14:12:13;;;;;;;15.25;4.55;;;;;;;;;;5038919;28;20049;-73
2023/09/09 14:14:38;;;;;;;13.77;4.45;;;;;;;;;;5032403;28;20405;-72
2023/09/09 14:17:03;;;;;;;12.90;4.70;;;;;;;;;;5032684;28;20028;-73
2023/09/09 14:19:28;;;;;;;14.57;4.82;;;;;;;;;;5014310;28;20260;-72